createdAt,value
2023-05-10T00:03:47.754Z,5.70
2023-05-10T00:09:49.629Z,6.43
2023-05-10T00:15:51.702Z,6.43
2023-05-10T00:21:53.620Z,6.75
2023-05-10T00:27:56.395Z,8.15
2023-05-10T00:33:58.294Z,8.90
2023-05-10T00:40:00.192Z,9.73
2023-05-10T00:46:02.073Z,7.35
2023-05-10T00:52:04.361Z,7.78
2023-05-10T00:58:06.898Z,9.00
2023-05-10T01:04:10.351Z,9.15
2023-05-10T01:10:12.433Z,7.82
2023-05-10T01:16:14.823Z,7.90
2023-05-10T01:22:53.181Z,9.27
2023-05-10T01:29:08.968Z,10.00
2023-05-10T01:35:27.785Z,10.05
2023-05-10T01:41:42.546Z,11.02
2023-05-10T01:47:59.663Z,10.00
2023-05-10T01:54:06.662Z,10.93
2023-05-10T02:00:09.805Z,10.88
2023-05-10T02:06:14.074Z,11.77
2023-05-10T02:12:18.333Z,11.55
2023-05-10T02:18:20.584Z,11.13
2023-05-10T02:24:23.667Z,9.45
2023-05-10T02:30:28.113Z,11.18
2023-05-10T02:36:31.498Z,11.13
2023-05-10T02:42:36.553Z,10.10
2023-05-10T02:48:39.412Z,8.00
2023-05-10T02:54:51.377Z,3.88
2023-05-10T03:00:55.013Z,4.20
2023-05-10T03:06:57.386Z,4.00
2023-05-10T03:13:20.946Z,3.83
2023-05-10T03:19:33.702Z,3.60
2023-05-10T03:25:36.967Z,2.88
2023-05-10T03:31:40.455Z,2.93
2023-05-10T03:37:43.796Z,2.73
2023-05-10T03:43:46.210Z,3.57
2023-05-10T03:49:48.346Z,3.75
2023-05-10T03:55:50.518Z,4.45
2023-05-10T04:01:52.645Z,5.25
2023-05-10T04:07:54.684Z,5.10
2023-05-10T04:13:56.787Z,4.95
2023-05-10T04:19:58.698Z,4.55
2023-05-10T04:26:02.443Z,4.22
2023-05-10T04:32:04.821Z,4.97
2023-05-10T04:38:06.857Z,4.32
2023-05-10T04:44:08.876Z,4.03
2023-05-10T04:50:11.064Z,4.22
2023-05-10T04:56:12.923Z,3.97
2023-05-10T05:02:15.093Z,2.65
2023-05-10T05:08:17.023Z,1.23
2023-05-10T05:14:19.215Z,1.00
2023-05-10T05:20:21.368Z,1.30
2023-05-10T05:26:23.288Z,1.10
2023-05-10T05:32:26.156Z,1.10
2023-05-10T05:38:28.257Z,1.30
2023-05-10T05:44:30.416Z,1.25
2023-05-10T05:50:45.830Z,1.73
2023-05-10T05:56:55.524Z,1.73
2023-05-10T06:03:00.527Z,2.80
2023-05-10T06:09:06.951Z,3.45
2023-05-10T06:15:10.556Z,3.60
2023-05-10T06:21:12.767Z,3.40
2023-05-10T06:27:14.581Z,3.70
2023-05-10T06:33:17.264Z,3.63
2023-05-10T06:39:19.280Z,3.22
2023-05-10T06:45:22.277Z,3.30
2023-05-10T06:51:24.208Z,3.47
2023-05-10T06:57:31.678Z,3.45
2023-05-10T07:03:34.377Z,3.40
2023-05-10T07:09:36.772Z,3.67
2023-05-10T07:15:39.061Z,2.95
2023-05-10T07:21:43.986Z,2.55
2023-05-10T07:27:46.900Z,2.03
2023-05-10T07:33:50.460Z,2.70
2023-05-10T07:40:04.395Z,2.40
2023-05-10T07:46:06.495Z,2.45
2023-05-10T07:52:08.390Z,2.70
2023-05-10T07:58:10.490Z,2.38
2023-05-10T08:04:12.893Z,3.20
2023-05-10T08:10:15.966Z,3.33
2023-05-10T08:16:18.512Z,3.60
2023-05-10T08:22:20.420Z,3.72
2023-05-10T08:28:22.225Z,3.72
2023-05-10T08:34:25.290Z,3.90
2023-05-10T08:40:27.721Z,4.67
2023-05-10T08:46:31.620Z,5.10
2023-05-10T08:52:37.321Z,6.60
2023-05-10T08:58:40.035Z,6.63
2023-05-10T09:04:42.234Z,6.45
2023-05-10T09:10:48.238Z,8.02
2023-05-10T09:16:50.499Z,7.43
2023-05-10T09:22:52.527Z,8.32
2023-05-10T09:28:56.581Z,7.90
2023-05-10T09:34:58.367Z,8.30
2023-05-10T09:41:03.802Z,10.05
2023-05-10T09:47:05.758Z,10.23
2023-05-10T09:53:07.835Z,9.18
2023-05-10T09:59:13.083Z,10.20
2023-05-10T10:05:15.623Z,8.13
2023-05-10T10:11:18.728Z,6.90
2023-05-10T10:17:21.196Z,6.37
2023-05-10T10:23:23.133Z,7.70
2023-05-10T10:29:35.760Z,7.47
2023-05-10T10:35:38.125Z,8.13
2023-05-10T10:41:51.727Z,8.10
2023-05-10T10:48:22.617Z,8.55
2023-05-10T10:54:30.790Z,7.55
2023-05-10T11:00:34.600Z,8.63
2023-05-10T11:06:37.319Z,6.70
2023-05-10T11:13:11.085Z,6.18
2023-05-10T11:19:14.817Z,5.88
2023-05-10T11:25:16.780Z,6.05
2023-05-10T11:31:19.886Z,4.93
2023-05-10T11:37:21.833Z,4.07
2023-05-10T11:43:29.250Z,4.05
2023-05-10T11:49:31.243Z,3.20
2023-05-10T11:55:35.040Z,3.30
2023-05-10T12:07:39.052Z,3.50
2023-05-10T12:13:42.117Z,4.57
2023-05-10T12:19:44.824Z,4.03
2023-05-10T12:25:46.927Z,4.15
2023-05-10T12:32:00.243Z,4.97
2023-05-10T12:38:02.106Z,4.28
2023-05-10T12:44:04.018Z,3.20
2023-05-10T12:50:06.684Z,3.92
2023-05-10T12:56:08.599Z,4.95
2023-05-10T13:02:11.035Z,4.30
2023-05-10T13:08:12.878Z,5.80
2023-05-10T13:14:15.453Z,5.15
2023-05-10T13:20:19.036Z,4.82
2023-05-10T13:26:21.141Z,5.43
2023-05-10T13:32:23.002Z,4.88
2023-05-10T13:38:24.912Z,4.60
2023-05-10T13:44:26.955Z,4.32
2023-05-10T13:50:28.916Z,5.30
2023-05-10T13:56:30.773Z,5.13
2023-05-10T14:02:32.685Z,4.57
2023-05-10T14:08:35.760Z,5.72
2023-05-10T14:14:37.778Z,5.23
2023-05-10T14:20:39.917Z,5.70
2023-05-10T14:26:41.721Z,7.00
2023-05-10T14:32:43.700Z,7.78
2023-05-10T14:38:45.632Z,5.93
2023-05-10T14:44:47.443Z,8.70
2023-05-10T14:50:50.733Z,10.90
2023-05-10T14:56:52.683Z,9.50
2023-05-10T15:02:54.674Z,10.02
2023-05-10T15:08:57.076Z,10.10
2023-05-10T15:14:58.884Z,9.57
2023-05-10T15:21:01.139Z,10.82
2023-05-10T15:27:03.147Z,10.57
2023-05-10T15:33:05.201Z,10.52
2023-05-10T15:39:07.447Z,11.98
2023-05-10T15:45:10.184Z,11.73
2023-05-10T15:51:12.540Z,10.40
2023-05-10T15:57:14.470Z,12.90
2023-05-10T16:03:16.442Z,12.80
2023-05-10T16:09:18.287Z,13.23
2023-05-10T16:15:21.793Z,12.65
2023-05-10T16:21:24.069Z,14.95
2023-05-10T16:27:28.668Z,14.93
2023-05-10T16:33:30.963Z,11.63
2023-05-10T16:39:32.784Z,11.02
2023-05-10T16:45:35.154Z,13.57
2023-05-10T16:51:37.068Z,12.38
2023-05-10T16:57:38.982Z,11.70
2023-05-10T17:03:40.898Z,10.65
2023-05-10T17:09:43.977Z,11.15
2023-05-10T17:15:47.368Z,10.55
2023-05-10T17:21:49.263Z,10.90
2023-05-10T17:27:51.126Z,12.02
2023-05-10T17:33:53.063Z,12.40
2023-05-10T17:39:54.986Z,12.88
2023-05-10T17:45:56.989Z,11.38
2023-05-10T17:51:58.789Z,11.27
2023-05-10T17:58:01.131Z,12.13
2023-05-10T18:04:03.022Z,11.30
2023-05-10T18:10:05.179Z,8.75
2023-05-10T18:16:08.908Z,9.02
2023-05-10T18:22:11.053Z,6.65
2023-05-10T18:28:13.222Z,5.57
2023-05-10T18:34:15.085Z,3.50
2023-05-10T18:40:18.220Z,5.53
2023-05-10T18:46:20.107Z,8.80
2023-05-10T18:52:22.049Z,9.50
2023-05-10T18:58:24.073Z,12.27
2023-05-10T19:04:26.227Z,12.95
2023-05-10T19:10:28.148Z,12.63
2023-05-10T19:16:30.578Z,11.45
2023-05-10T19:22:45.456Z,11.35
2023-05-10T19:28:52.129Z,9.18
2023-05-10T19:34:54.125Z,9.40
2023-05-10T19:41:00.185Z,10.52
2023-05-10T19:47:02.767Z,10.30
2023-05-10T19:53:05.632Z,7.80
2023-05-10T19:59:08.108Z,6.50
2023-05-10T20:05:10.152Z,8.23
2023-05-10T20:11:12.350Z,8.75
2023-05-10T20:17:14.227Z,8.20
2023-05-10T20:23:17.217Z,10.15
2023-05-10T20:29:18.930Z,9.30
2023-05-10T20:35:20.752Z,9.73
2023-05-10T20:41:22.751Z,9.63
2023-05-10T20:47:24.749Z,9.88
2023-05-10T20:53:26.564Z,10.32
2023-05-10T20:59:28.941Z,9.60
2023-05-10T21:05:31.129Z,8.23
2023-05-10T21:11:36.240Z,9.13
2023-05-10T21:17:38.086Z,9.38
2023-05-10T21:23:39.915Z,11.63
2023-05-10T21:29:41.749Z,11.15
2023-05-10T21:35:44.147Z,11.80
2023-05-10T21:41:46.145Z,13.10
2023-05-10T21:47:48.154Z,13.38
2023-05-10T21:53:50.219Z,13.77
2023-05-10T21:59:52.174Z,13.23
2023-05-10T22:05:53.995Z,14.90
2023-05-10T22:11:55.917Z,14.30
2023-05-10T22:17:57.849Z,12.90
2023-05-10T22:23:59.712Z,13.18
2023-05-10T22:30:01.673Z,11.70
2023-05-10T22:36:03.688Z,11.75
2023-05-10T22:42:05.549Z,8.93
2023-05-10T22:48:09.578Z,11.52
2023-05-10T22:54:11.492Z,11.40
2023-05-10T23:00:14.230Z,8.02
2023-05-10T23:06:16.046Z,12.15
2023-05-10T23:12:17.933Z,11.52
2023-05-10T23:18:19.757Z,12.10
2023-05-10T23:24:21.726Z,13.95
2023-05-10T23:30:23.491Z,10.48
2023-05-10T23:36:25.398Z,12.10
2023-05-10T23:42:27.493Z,14.27
2023-05-10T23:48:29.359Z,14.85
2023-05-10T23:54:31.176Z,16.38
